| time (UTC) | temp C | wind direction | speed KPH | gust KPH | rain 1hr cm | rain 24hr cm | rain mn cm | humidity % | barometer mb |
| 20260507141541 | 6 | 58 | 8.0 | 12.9 | 0.00 | 0.00 | 0.00 | 69 | 1012.4 |
| 20260507140044 | 6 | 94 | 8.0 | 12.9 | 0.00 | 0.00 | 0.00 | 67 | 1012.5 |
| 20260507134542 | 6 | 96 | 9.7 | 12.9 | 0.00 | 0.00 | 0.00 | 74 | 1012.5 |
| 20260507133036 | 6 | 57 | 8.0 | 14.5 | 0.00 | 0.00 | 0.00 | 69 | 1012.5 |
| 20260507131504 | 6 | 57 | 12.9 | 16.1 | 0.00 | 0.00 | 0.00 | 68 | 1012.4 |
| 20260507130110 | 7 | 99 | 4.8 | 9.7 | 0.00 | 0.00 | 0.00 | 71 | 1012.5 |
| 20260507124555 | 7 | 98 | 0.0 | 9.7 | 0.00 | 0.00 | 0.00 | 75 | 1012.3 |
| 20260507123051 | 6 | 85 | 1.6 | 11.3 | 0.00 | 0.00 | 0.00 | 74 | 1012.4 |
| 20260507121558 | 6 | 79 | 4.8 | 12.9 | 0.00 | 0.00 | 0.00 | 78 | 1012.5 |
| 20260507120046 | 6 | 79 | 3.2 | 8.0 | 0.00 | 0.00 | 0.00 | 80 | 1012.4 |
| 20260507114546 | 5 | 79 | 6.4 | 9.7 | 0.00 | 0.00 | 0.00 | 82 | 1012.3 |
| 20260507113038 | 5 | 79 | 3.2 | 8.0 | 0.00 | 0.00 | 0.00 | 82 | 1012.2 |
| 20260507111534 | 6 | 79 | 1.6 | 4.8 | 0.00 | 0.00 | 0.00 | 76 | 1012.1 |
| 20260507110031 | -17 | 0.0 | 0.0 | 0.00 | 0.00 | 0.00 | 1011.9 | ||
| 20260507104556 | -17 | 0.0 | 0.0 | 0.00 | 0.00 | 0.00 | 1011.8 | ||
| 20260507103052 | -17 | 0.0 | 0.0 | 0.00 | 0.00 | 0.00 | 1011.9 | ||
| 20260507101546 | -17 | 0.0 | 0.0 | 0.00 | 0.00 | 0.00 | 1011.9 | ||
| 20260507100042 | -17 | 0.0 | 0.0 | 0.00 | 0.00 | 0.00 | 1011.9 | ||
| 20260507094539 | -17 | 0.0 | 0.0 | 0.00 | 0.00 | 0.00 | 1012.0 | ||
| 20260507093033 | 3 | 352 | 6.4 | 8.0 | 0.00 | 0.00 | 0.00 | 85 | 1012.0 |
| 20260507091533 | 3 | 352 | 4.8 | 9.7 | 0.00 | 0.00 | 0.00 | 85 | 1012.1 |
| 20260507090033 | 3 | 360 | 4.8 | 12.9 | 0.00 | 0.00 | 0.00 | 84 | 1012.2 |
| 20260507084531 | 4 | 348 | 4.8 | 11.3 | 0.00 | 0.00 | 0.00 | 85 | 1012.1 |
| 20260507084528 | 4 | 349 | 4.8 | 11.3 | 0.00 | 0.00 | 0.00 | 85 | 1012.1 |
| 20260507083027 | 3 | 340 | 3.2 | 9.7 | 0.00 | 0.00 | 0.00 | 86 | 1012.0 |
| 20260507081539 | 3 | 350 | 3.2 | 8.0 | 0.00 | 0.00 | 0.00 | 85 | 1012.0 |
| 20260507080020 | 2 | 314 | 3.2 | 6.4 | 0.00 | 0.00 | 0.00 | 82 | 1012.1 |
| 20260507074541 | 2 | 311 | 4.8 | 9.7 | 0.00 | 0.00 | 0.00 | 81 | 1012.1 |
| 20260507073016 | 2 | 308 | 1.6 | 9.7 | 0.00 | 0.00 | 0.00 | 81 | 1012.1 |
| 20260507071513 | 3 | 305 | 4.8 | 9.7 | 0.00 | 0.00 | 0.00 | 81 | 1012.2 |
| 20260507070018 | 3 | 298 | 6.4 | 11.3 | 0.00 | 0.00 | 0.00 | 80 | 1012.1 |
| 20260507064510 | 4 | 94 | 6.4 | 11.3 | 0.00 | 0.00 | 0.00 | 83 | 1012.2 |
| 20260507063009 | 4 | 94 | 3.2 | 4.8 | 0.00 | 0.00 | 0.00 | 81 | 1012.2 |
| 20260507061507 | 5 | 94 | 3.2 | 8.0 | 0.00 | 0.00 | 0.00 | 78 | 1012.4 |
| 20260507060006 | 7 | 93 | 6.4 | 9.7 | 0.00 | 0.00 | 0.00 | 73 | 1012.4 |
| 20260507054505 | 7 | 94 | 4.8 | 12.9 | 0.00 | 0.00 | 0.00 | 74 | 1012.4 |
| 20260507053003 | 7 | 93 | 8.0 | 12.9 | 0.00 | 0.00 | 0.00 | 74 | 1012.4 |
| 20260507051503 | 7 | 96 | 12.9 | 16.1 | 0.00 | 0.00 | 0.00 | 75 | 1012.4 |
| 20260507050006 | 7 | 98 | 16.1 | 19.3 | 0.00 | 0.00 | 0.00 | 76 | 1012.3 |
| 20260507044502 | 8 | 74 | 16.1 | 19.3 | 0.00 | 0.00 | 0.00 | 75 | 1012.4 |
| 20260507043103 | 7 | 74 | 19.3 | 22.5 | 0.00 | 0.00 | 0.00 | 75 | 1012.4 |
| 20260507041603 | 8 | 72 | 17.7 | 20.9 | 0.00 | 0.00 | 0.00 | 75 | 1012.4 |
| 20260507041502 | 8 | 72 | 19.3 | 20.9 | 0.00 | 0.00 | 0.00 | 73 | 1012.4 |
| 20260507040058 | 7 | 36 | 3.2 | 8.0 | 0.00 | 0.00 | 0.00 | 73 | 1012.3 |
| 20260507034601 | 7 | 35 | 4.8 | 6.4 | 0.00 | 0.00 | 0.00 | 70 | 1012.3 |
| 20260507033103 | 8 | 36 | 0.0 | 3.2 | 0.00 | 0.00 | 0.00 | 59 | 1012.3 |
| 20260507031606 | 8 | 35 | 0.0 | 6.4 | 0.00 | 0.00 | 0.00 | 59 | 1012.3 |
| 20260507030057 | 8 | 35 | 12.9 | 17.7 | 0.00 | 0.00 | 0.00 | 63 | 1012.4 |
| 20260507024554 | 8 | 19 | 11.3 | 16.1 | 0.00 | 0.00 | 0.00 | 59 | 1012.4 |
| 20260507023022 | 8 | 20 | 16.1 | 20.9 | 0.00 | 0.00 | 0.00 | 65 | 1012.5 |
| 20260507021523 | 8 | 34 | 25.7 | 32.2 | 0.00 | 0.00 | 0.00 | 68 | 1012.2 |
| 20260507020021 | 8 | 33 | 25.7 | 29.0 | 0.00 | 0.00 | 0.00 | 75 | 1012.3 |
| 20260507014530 | 7 | 33 | 30.6 | 37.0 | 0.00 | 0.00 | 0.00 | 77 | 1012.2 |
| 20260507013018 | 8 | 30 | 30.6 | 40.2 | 0.00 | 0.00 | 0.00 | 76 | 1012.0 |
| 20260507011519 | 10 | 15 | 20.9 | 35.4 | 0.00 | 0.00 | 0.00 | 65 | 1011.9 |
| 20260507010015 | 10 | 300 | 17.7 | 37.0 | 0.00 | 0.00 | 0.00 | 44 | 1011.6 |
| 20260507004518 | 10 | 280 | 8.0 | 17.7 | 0.00 | 0.00 | 0.00 | 43 | 1011.4 |
| 20260507003014 | 10 | 295 | 11.3 | 16.1 | 0.00 | 0.00 | 0.00 | 44 | 1011.2 |
| 20260507001521 | 10 | 305 | 4.8 | 12.9 | 0.00 | 0.00 | 0.00 | 45 | 1011.1 |
| 20260507000010 | 10 | 283 | 6.4 | 11.3 | 0.00 | 0.00 | 0.00 | 44 | 1010.9 |
| 20260506234513 | 11 | 267 | 8.0 | 17.7 | 0.00 | 0.00 | 0.00 | 43 | 1010.9 |
| 20260506233010 | 11 | 261 | 6.4 | 12.9 | 0.00 | 0.00 | 0.00 | 43 | 1010.8 |
| 20260506231509 | 11 | 263 | 6.4 | 14.5 | 0.00 | 0.00 | 0.00 | 42 | 1010.8 |
| 20260506230007 | 11 | 263 | 4.8 | 12.9 | 0.00 | 0.00 | 0.00 | 43 | 1010.8 |
| 20260506224507 | 11 | 264 | 4.8 | 9.7 | 0.00 | 0.00 | 0.00 | 43 | 1010.9 |
| 20260506223006 | 11 | 264 | 6.4 | 9.7 | 0.00 | 0.00 | 0.00 | 42 | 1011.0 |
| 20260506221506 | 11 | 301 | 9.7 | 17.7 | 0.00 | 0.00 | 0.00 | 43 | 1011.1 |
| 20260506220012 | 11 | 280 | 6.4 | 17.7 | 0.00 | 0.00 | 0.00 | 43 | 1011.0 |
| 20260506214502 | 11 | 285 | 11.3 | 19.3 | 0.00 | 0.00 | 0.00 | 42 | 1010.9 |
| 20260506213002 | 11 | 284 | 9.7 | 17.7 | 0.00 | 0.00 | 0.00 | 41 | 1010.9 |
| 20260506211505 | 11 | 309 | 11.3 | 17.7 | 0.00 | 0.00 | 0.00 | 43 | 1011.0 |
| 20260506210059 | 11 | 270 | 6.4 | 20.9 | 0.00 | 0.00 | 0.00 | 42 | 1011.0 |
| 20260506204558 | 11 | 262 | 9.7 | 16.1 | 0.00 | 0.00 | 0.00 | 42 | 1010.9 |
| 20260506203059 | 11 | 302 | 6.4 | 19.3 | 0.00 | 0.00 | 0.00 | 42 | 1011.0 |
| 20260506201558 | 11 | 281 | 9.7 | 16.1 | 0.00 | 0.00 | 0.00 | 42 | 1011.1 |
| 20260506200055 | 11 | 276 | 4.8 | 16.1 | 0.00 | 0.00 | 0.00 | 42 | 1011.1 |
| 20260506194611 | 10 | 302 | 9.7 | 19.3 | 0.00 | 0.00 | 0.00 | 43 | 1011.3 |
| 20260506193103 | 10 | 262 | 8.0 | 20.9 | 0.00 | 0.00 | 0.00 | 42 | 1011.3 |
| 20260506191551 | 10 | 297 | 9.7 | 24.1 | 0.00 | 0.00 | 0.00 | 42 | 1011.4 |
| 20260506190051 | 10 | 276 | 9.7 | 20.9 | 0.00 | 0.00 | 0.00 | 42 | 1011.4 |
| 20260506184544 | 10 | 292 | 6.4 | 20.9 | 0.00 | 0.00 | 0.00 | 42 | 1011.5 |
| 20260506183045 | 10 | 306 | 8.0 | 22.5 | 0.00 | 0.00 | 0.00 | 42 | 1011.5 |
| 20260506183043 | 10 | 307 | 8.0 | 22.5 | 0.00 | 0.00 | 0.00 | 42 | 1011.5 |
| 20260506181540 | 10 | 269 | 6.4 | 24.1 | 0.00 | 0.00 | 0.00 | 44 | 1011.5 |
| 20260506180046 | 10 | 279 | 6.4 | 16.1 | 0.00 | 0.00 | 0.00 | 45 | 1011.7 |
| 20260506174531 | 9 | 269 | 4.8 | 14.5 | 0.00 | 0.00 | 0.00 | 53 | 1011.8 |
| 20260506173027 | 8 | 110 | 11.3 | 14.5 | 0.00 | 0.00 | 0.00 | 58 | 1011.9 |
| 20260506171527 | 7 | 103 | 16.1 | 17.7 | 0.00 | 0.00 | 0.00 | 66 | 1011.8 |
| 20260506170023 | 7 | 110 | 14.5 | 17.7 | 0.00 | 0.00 | 0.00 | 65 | 1011.8 |
| 20260506164518 | 7 | 108 | 11.3 | 16.1 | 0.00 | 0.00 | 0.00 | 67 | 1012.2 |
| 20260506163030 | 6 | 84 | 12.9 | 16.1 | 0.00 | 0.00 | 0.00 | 69 | 1012.2 |
| 20260506161513 | 6 | 99 | 16.1 | 17.7 | 0.00 | 0.00 | 0.00 | 71 | 1012.2 |
| 20260506160016 | 6 | 101 | 11.3 | 14.5 | 0.00 | 0.00 | 0.00 | 68 | 1012.4 |
| 20260506154543 | 6 | 106 | 14.5 | 14.5 | 0.00 | 0.00 | 0.00 | 69 | 1012.5 |
| 20260506153031 | 6 | 96 | 8.0 | 11.3 | 0.00 | 0.00 | 0.00 | 69 | 1012.6 |
| 20260506151527 | 5 | 98 | 6.4 | 9.7 | 0.00 | 0.00 | 0.00 | 67 | 1012.5 |
| 20260506150027 | 5 | 100 | 4.8 | 11.3 | 0.00 | 0.00 | 0.00 | 69 | 1012.6 |
| 20260506144524 | 5 | 84 | 6.4 | 11.3 | 0.00 | 0.00 | 0.00 | 69 | 1012.5 |
| 20260506143019 | 5 | 39 | 6.4 | 12.9 | 0.00 | 0.00 | 0.00 | 69 | 1012.3 |